sensor_id;sensor_type;location;lat;lon;timestamp;temperature;humidity
8595;DHT22;4335;48.860;9.198;2023-08-01T00:00:54;19.10;99.90
8595;DHT22;4335;48.860;9.198;2023-08-01T00:03:22;19.10;99.90
8595;DHT22;4335;48.860;9.198;2023-08-01T00:05:48;19.10;99.90
8595;DHT22;4335;48.860;9.198;2023-08-01T00:08:20;19.10;99.90
8595;DHT22;4335;48.860;9.198;2023-08-01T00:10:50;19.10;99.90
8595;DHT22;4335;48.860;9.198;2023-08-01T00:13:20;19.10;99.90
8595;DHT22;4335;48.860;9.198;2023-08-01T00:15:50;19.00;99.90
8595;DHT22;4335;48.860;9.198;2023-08-01T00:18:19;19.10;99.90
8595;DHT22;4335;48.860;9.198;2023-08-01T00:20:46;19.00;99.90
8595;DHT22;4335;48.860;9.198;2023-08-01T00:23:13;19.00;99.90
8595;DHT22;4335;48.860;9.198;2023-08-01T00:25:44;19.00;99.90
8595;DHT22;4335;48.860;9.198;2023-08-01T00:28:13;19.00;99.90
8595;DHT22;4335;48.860;9.198;2023-08-01T00:30:46;19.00;99.90
8595;DHT22;4335;48.860;9.198;2023-08-01T00:33:16;19.00;99.90
8595;DHT22;4335;48.860;9.198;2023-08-01T00:35:42;19.00;99.90
8595;DHT22;4335;48.860;9.198;2023-08-01T00:38:09;19.00;99.90
8595;DHT22;4335;48.860;9.198;2023-08-01T00:40:41;19.00;99.90
8595;DHT22;4335;48.860;9.198;2023-08-01T00:43:11;19.00;99.90
8595;DHT22;4335;48.860;9.198;2023-08-01T00:45:41;18.90;99.90
8595;DHT22;4335;48.860;9.198;2023-08-01T00:48:09;18.90;99.90
8595;DHT22;4335;48.860;9.198;2023-08-01T00:50:35;18.90;99.90
8595;DHT22;4335;48.860;9.198;2023-08-01T00:53:08;18.90;99.90
8595;DHT22;4335;48.860;9.198;2023-08-01T00:55:35;18.90;99.90
8595;DHT22;4335;48.860;9.198;2023-08-01T00:58:03;18.80;99.90
8595;DHT22;4335;48.860;9.198;2023-08-01T01:00:32;18.80;99.90
8595;DHT22;4335;48.860;9.198;2023-08-01T01:02:59;18.80;99.90
8595;DHT22;4335;48.860;9.198;2023-08-01T01:05:36;18.80;99.90
8595;DHT22;4335;48.860;9.198;2023-08-01T01:08:06;18.70;99.90
8595;DHT22;4335;48.860;9.198;2023-08-01T01:10:33;18.70;99.90
8595;DHT22;4335;48.860;9.198;2023-08-01T01:13:02;18.70;99.90
8595;DHT22;4335;48.860;9.198;2023-08-01T01:15:32;18.70;99.90
8595;DHT22;4335;48.860;9.198;2023-08-01T01:18:02;18.70;99.90
8595;DHT22;4335;48.860;9.198;2023-08-01T01:20:33;18.70;99.90
8595;DHT22;4335;48.860;9.198;2023-08-01T01:23:01;18.70;99.90
8595;DHT22;4335;48.860;9.198;2023-08-01T01:25:33;18.60;99.90
8595;DHT22;4335;48.860;9.198;2023-08-01T01:28:01;18.60;99.90
8595;DHT22;4335;48.860;9.198;2023-08-01T01:30:29;18.60;99.90
8595;DHT22;4335;48.860;9.198;2023-08-01T01:32:56;18.60;99.90
8595;DHT22;4335;48.860;9.198;2023-08-01T01:35:24;18.60;99.90
8595;DHT22;4335;48.860;9.198;2023-08-01T01:37:51;18.60;99.90
8595;DHT22;4335;48.860;9.198;2023-08-01T01:40:18;18.60;99.90
8595;DHT22;4335;48.860;9.198;2023-08-01T01:42:57;18.70;99.90
8595;DHT22;4335;48.860;9.198;2023-08-01T01:45:27;18.60;99.90
8595;DHT22;4335;48.860;9.198;2023-08-01T01:47:54;18.60;99.90
8595;DHT22;4335;48.860;9.198;2023-08-01T01:50:26;18.60;99.90
8595;DHT22;4335;48.860;9.198;2023-08-01T01:52:56;18.60;99.90
8595;DHT22;4335;48.860;9.198;2023-08-01T01:55:29;18.60;99.90
8595;DHT22;4335;48.860;9.198;2023-08-01T01:57:59;18.50;99.90
8595;DHT22;4335;48.860;9.198;2023-08-01T02:00:25;18.50;99.90
8595;DHT22;4335;48.860;9.198;2023-08-01T02:02:55;18.50;99.90
8595;DHT22;4335;48.860;9.198;2023-08-01T02:05:22;18.50;99.90
8595;DHT22;4335;48.860;9.198;2023-08-01T02:07:54;18.40;99.90
8595;DHT22;4335;48.860;9.198;2023-08-01T02:10:22;18.40;99.90
8595;DHT22;4335;48.860;9.198;2023-08-01T02:12:55;18.40;99.90
8595;DHT22;4335;48.860;9.198;2023-08-01T02:15:21;18.40;99.90
8595;DHT22;4335;48.860;9.198;2023-08-01T02:17:57;18.40;99.90
8595;DHT22;4335;48.860;9.198;2023-08-01T02:20:30;18.40;99.90
8595;DHT22;4335;48.860;9.198;2023-08-01T02:22:57;18.40;99.90
8595;DHT22;4335;48.860;9.198;2023-08-01T02:25:25;18.40;99.90
8595;DHT22;4335;48.860;9.198;2023-08-01T02:28:00;18.40;99.90
8595;DHT22;4335;48.860;9.198;2023-08-01T02:30:33;18.40;99.90
8595;DHT22;4335;48.860;9.198;2023-08-01T02:33:00;18.40;99.90
8595;DHT22;4335;48.860;9.198;2023-08-01T02:35:38;18.40;99.90
8595;DHT22;4335;48.860;9.198;2023-08-01T02:38:07;18.40;99.90
8595;DHT22;4335;48.860;9.198;2023-08-01T02:40:42;18.40;99.90
8595;DHT22;4335;48.860;9.198;2023-08-01T02:43:09;18.40;99.90
8595;DHT22;4335;48.860;9.198;2023-08-01T02:45:38;18.40;99.90
8595;DHT22;4335;48.860;9.198;2023-08-01T02:48:08;18.40;99.90
8595;DHT22;4335;48.860;9.198;2023-08-01T02:50:34;18.30;99.90
8595;DHT22;4335;48.860;9.198;2023-08-01T02:53:01;18.40;99.90
8595;DHT22;4335;48.860;9.198;2023-08-01T02:55:27;18.30;99.90
8595;DHT22;4335;48.860;9.198;2023-08-01T02:57:55;18.30;99.90
8595;DHT22;4335;48.860;9.198;2023-08-01T03:00:22;18.30;99.90
8595;DHT22;4335;48.860;9.198;2023-08-01T03:03:01;18.30;99.90
8595;DHT22;4335;48.860;9.198;2023-08-01T03:05:28;18.30;99.90
8595;DHT22;4335;48.860;9.198;2023-08-01T03:07:55;18.30;99.90
8595;DHT22;4335;48.860;9.198;2023-08-01T03:10:31;18.30;99.90
8595;DHT22;4335;48.860;9.198;2023-08-01T03:13:03;18.30;99.90
8595;DHT22;4335;48.860;9.198;2023-08-01T03:15:33;18.30;99.90
8595;DHT22;4335;48.860;9.198;2023-08-01T03:17:59;18.20;99.90
8595;DHT22;4335;48.860;9.198;2023-08-01T03:20:31;18.20;99.90
8595;DHT22;4335;48.860;9.198;2023-08-01T03:22:58;18.20;99.90
8595;DHT22;4335;48.860;9.198;2023-08-01T03:25:24;18.20;99.90
8595;DHT22;4335;48.860;9.198;2023-08-01T03:27:51;18.20;99.90
8595;DHT22;4335;48.860;9.198;2023-08-01T03:30:19;18.20;99.90
8595;DHT22;4335;48.860;9.198;2023-08-01T03:32:46;18.20;99.90
8595;DHT22;4335;48.860;9.198;2023-08-01T03:35:16;18.20;99.90
8595;DHT22;4335;48.860;9.198;2023-08-01T03:37:45;18.20;99.90
8595;DHT22;4335;48.860;9.198;2023-08-01T03:40:12;18.20;99.90
8595;DHT22;4335;48.860;9.198;2023-08-01T03:42:42;18.20;99.90
8595;DHT22;4335;48.860;9.198;2023-08-01T03:45:10;18.20;99.90
8595;DHT22;4335;48.860;9.198;2023-08-01T03:47:58;18.20;99.90
8595;DHT22;4335;48.860;9.198;2023-08-01T03:50:27;18.20;99.90
8595;DHT22;4335;48.860;9.198;2023-08-01T03:52:54;18.20;99.90
8595;DHT22;4335;48.860;9.198;2023-08-01T03:55:20;18.30;99.90
8595;DHT22;4335;48.860;9.198;2023-08-01T03:57:47;18.20;99.90
8595;DHT22;4335;48.860;9.198;2023-08-01T04:00:14;18.20;99.90
8595;DHT22;4335;48.860;9.198;2023-08-01T04:02:42;18.20;99.90
8595;DHT22;4335;48.860;9.198;2023-08-01T04:05:10;18.20;99.90
8595;DHT22;4335;48.860;9.198;2023-08-01T04:07:43;18.30;99.90
8595;DHT22;4335;48.860;9.198;2023-08-01T04:10:12;18.30;99.90
8595;DHT22;4335;48.860;9.198;2023-08-01T04:12:39;18.40;99.90
8595;DHT22;4335;48.860;9.198;2023-08-01T04:15:21;18.40;99.90
8595;DHT22;4335;48.860;9.198;2023-08-01T04:17:50;18.40;99.90
8595;DHT22;4335;48.860;9.198;2023-08-01T04:20:20;18.40;99.90
8595;DHT22;4335;48.860;9.198;2023-08-01T04:22:47;18.30;99.90
8595;DHT22;4335;48.860;9.198;2023-08-01T04:25:17;18.40;99.90
8595;DHT22;4335;48.860;9.198;2023-08-01T04:27:44;18.40;99.90
8595;DHT22;4335;48.860;9.198;2023-08-01T04:30:18;18.40;99.90
8595;DHT22;4335;48.860;9.198;2023-08-01T04:32:48;18.40;99.90
8595;DHT22;4335;48.860;9.198;2023-08-01T04:35:18;18.40;99.90
8595;DHT22;4335;48.860;9.198;2023-08-01T04:37:44;18.40;99.90
8595;DHT22;4335;48.860;9.198;2023-08-01T04:40:20;18.40;99.90
8595;DHT22;4335;48.860;9.198;2023-08-01T04:42:46;18.40;99.90
8595;DHT22;4335;48.860;9.198;2023-08-01T04:45:22;18.50;99.90
8595;DHT22;4335;48.860;9.198;2023-08-01T04:47:52;18.50;99.90
8595;DHT22;4335;48.860;9.198;2023-08-01T04:50:30;18.50;99.90
8595;DHT22;4335;48.860;9.198;2023-08-01T04:53:03;18.50;99.90
8595;DHT22;4335;48.860;9.198;2023-08-01T04:55:35;18.50;99.90
8595;DHT22;4335;48.860;9.198;2023-08-01T04:58:07;18.50;99.90
8595;DHT22;4335;48.860;9.198;2023-08-01T05:00:34;18.50;99.90
8595;DHT22;4335;48.860;9.198;2023-08-01T05:03:01;18.50;99.90
8595;DHT22;4335;48.860;9.198;2023-08-01T05:05:27;18.60;99.90
8595;DHT22;4335;48.860;9.198;2023-08-01T05:07:55;18.60;99.90
8595;DHT22;4335;48.860;9.198;2023-08-01T05:10:25;18.60;99.90
8595;DHT22;4335;48.860;9.198;2023-08-01T05:12:54;18.60;99.90
8595;DHT22;4335;48.860;9.198;2023-08-01T05:15:21;18.70;99.90
8595;DHT22;4335;48.860;9.198;2023-08-01T05:17:54;18.70;99.90
8595;DHT22;4335;48.860;9.198;2023-08-01T05:20:21;18.70;99.90
8595;DHT22;4335;48.860;9.198;2023-08-01T05:22:51;18.80;99.90
8595;DHT22;4335;48.860;9.198;2023-08-01T05:25:19;18.80;99.90
8595;DHT22;4335;48.860;9.198;2023-08-01T05:27:45;18.80;99.90
8595;DHT22;4335;48.860;9.198;2023-08-01T05:30:13;18.80;99.90
8595;DHT22;4335;48.860;9.198;2023-08-01T05:32:43;18.80;99.90
8595;DHT22;4335;48.860;9.198;2023-08-01T05:35:11;18.90;99.90
8595;DHT22;4335;48.860;9.198;2023-08-01T05:37:37;18.90;99.90
8595;DHT22;4335;48.860;9.198;2023-08-01T05:40:05;18.90;99.90
8595;DHT22;4335;48.860;9.198;2023-08-01T05:42:32;18.90;99.90
8595;DHT22;4335;48.860;9.198;2023-08-01T05:44:59;18.90;99.90
8595;DHT22;4335;48.860;9.198;2023-08-01T05:47:26;18.90;99.90
8595;DHT22;4335;48.860;9.198;2023-08-01T05:49:56;18.90;99.90
8595;DHT22;4335;48.860;9.198;2023-08-01T05:52:22;19.00;99.90
8595;DHT22;4335;48.860;9.198;2023-08-01T05:54:52;19.00;99.90
8595;DHT22;4335;48.860;9.198;2023-08-01T05:57:19;19.10;99.90
8595;DHT22;4335;48.860;9.198;2023-08-01T05:59:47;19.10;99.90
8595;DHT22;4335;48.860;9.198;2023-08-01T06:02:13;19.10;99.90
8595;DHT22;4335;48.860;9.198;2023-08-01T06:04:40;19.10;99.90
8595;DHT22;4335;48.860;9.198;2023-08-01T06:07:07;19.10;99.90
8595;DHT22;4335;48.860;9.198;2023-08-01T06:09:33;19.20;99.90
8595;DHT22;4335;48.860;9.198;2023-08-01T06:12:00;19.20;99.90
8595;DHT22;4335;48.860;9.198;2023-08-01T06:14:27;19.20;99.90
8595;DHT22;4335;48.860;9.198;2023-08-01T06:16:57;19.30;99.90
8595;DHT22;4335;48.860;9.198;2023-08-01T06:19:26;19.40;99.90
8595;DHT22;4335;48.860;9.198;2023-08-01T06:21:56;19.40;99.90
8595;DHT22;4335;48.860;9.198;2023-08-01T06:24:23;19.40;99.90
8595;DHT22;4335;48.860;9.198;2023-08-01T06:26:58;19.40;99.90
8595;DHT22;4335;48.860;9.198;2023-08-01T06:29:27;19.40;99.90
8595;DHT22;4335;48.860;9.198;2023-08-01T06:31:58;19.50;99.90
8595;DHT22;4335;48.860;9.198;2023-08-01T06:34:26;19.40;99.90
8595;DHT22;4335;48.860;9.198;2023-08-01T06:36:53;19.30;99.90
8595;DHT22;4335;48.860;9.198;2023-08-01T06:39:20;19.20;99.90
8595;DHT22;4335;48.860;9.198;2023-08-01T06:41:47;19.10;99.90
8595;DHT22;4335;48.860;9.198;2023-08-01T06:44:13;18.90;99.90
8595;DHT22;4335;48.860;9.198;2023-08-01T06:46:43;18.70;99.90
8595;DHT22;4335;48.860;9.198;2023-08-01T06:49:13;18.60;99.90
8595;DHT22;4335;48.860;9.198;2023-08-01T06:51:40;18.40;99.90
8595;DHT22;4335;48.860;9.198;2023-08-01T06:54:08;18.30;99.90
8595;DHT22;4335;48.860;9.198;2023-08-01T06:56:35;18.30;99.90
8595;DHT22;4335;48.860;9.198;2023-08-01T06:59:04;18.30;99.90
8595;DHT22;4335;48.860;9.198;2023-08-01T07:01:44;18.10;99.90
8595;DHT22;4335;48.860;9.198;2023-08-01T07:04:10;18.10;99.90
8595;DHT22;4335;48.860;9.198;2023-08-01T07:06:41;18.10;99.90
8595;DHT22;4335;48.860;9.198;2023-08-01T07:09:07;18.20;99.90
8595;DHT22;4335;48.860;9.198;2023-08-01T07:11:34;18.30;99.90
8595;DHT22;4335;48.860;9.198;2023-08-01T07:14:02;18.30;99.90
8595;DHT22;4335;48.860;9.198;2023-08-01T07:16:32;18.40;99.90
8595;DHT22;4335;48.860;9.198;2023-08-01T07:19:00;18.50;99.90
8595;DHT22;4335;48.860;9.198;2023-08-01T07:21:27;18.50;99.90
8595;DHT22;4335;48.860;9.198;2023-08-01T07:23:58;18.50;99.90
8595;DHT22;4335;48.860;9.198;2023-08-01T07:26:24;18.40;99.90
8595;DHT22;4335;48.860;9.198;2023-08-01T07:28:56;18.40;99.90
8595;DHT22;4335;48.860;9.198;2023-08-01T07:31:28;18.40;99.90
8595;DHT22;4335;48.860;9.198;2023-08-01T07:33:55;18.30;99.90
8595;DHT22;4335;48.860;9.198;2023-08-01T07:36:25;18.00;99.90
8595;DHT22;4335;48.860;9.198;2023-08-01T07:38:55;17.90;99.90
8595;DHT22;4335;48.860;9.198;2023-08-01T07:41:25;17.80;99.90
8595;DHT22;4335;48.860;9.198;2023-08-01T07:43:52;17.80;99.90
8595;DHT22;4335;48.860;9.198;2023-08-01T07:46:24;17.70;99.90
8595;DHT22;4335;48.860;9.198;2023-08-01T07:48:51;17.60;99.90
8595;DHT22;4335;48.860;9.198;2023-08-01T07:51:20;17.70;99.90
8595;DHT22;4335;48.860;9.198;2023-08-01T07:53:53;17.70;99.90
8595;DHT22;4335;48.860;9.198;2023-08-01T07:56:21;17.80;99.90
8595;DHT22;4335;48.860;9.198;2023-08-01T07:58:47;17.90;99.90
8595;DHT22;4335;48.860;9.198;2023-08-01T08:01:17;18.00;99.90
8595;DHT22;4335;48.860;9.198;2023-08-01T08:03:47;18.00;99.90
8595;DHT22;4335;48.860;9.198;2023-08-01T08:06:19;18.20;99.90
8595;DHT22;4335;48.860;9.198;2023-08-01T08:08:50;18.40;99.90
8595;DHT22;4335;48.860;9.198;2023-08-01T08:11:16;18.50;99.90
8595;DHT22;4335;48.860;9.198;2023-08-01T08:13:46;18.70;99.90
8595;DHT22;4335;48.860;9.198;2023-08-01T08:16:19;18.80;99.90
8595;DHT22;4335;48.860;9.198;2023-08-01T08:18:45;18.90;99.90
8595;DHT22;4335;48.860;9.198;2023-08-01T08:21:12;18.80;99.90
8595;DHT22;4335;48.860;9.198;2023-08-01T08:23:42;18.80;99.90
8595;DHT22;4335;48.860;9.198;2023-08-01T08:26:09;18.70;99.90
8595;DHT22;4335;48.860;9.198;2023-08-01T08:28:36;18.80;99.90
8595;DHT22;4335;48.860;9.198;2023-08-01T08:31:11;18.80;99.90
8595;DHT22;4335;48.860;9.198;2023-08-01T08:33:38;18.80;99.90
8595;DHT22;4335;48.860;9.198;2023-08-01T08:36:05;18.90;99.90
8595;DHT22;4335;48.860;9.198;2023-08-01T08:38:31;19.00;99.90
8595;DHT22;4335;48.860;9.198;2023-08-01T08:41:09;19.00;99.90
8595;DHT22;4335;48.860;9.198;2023-08-01T08:43:36;19.10;99.90
8595;DHT22;4335;48.860;9.198;2023-08-01T08:46:05;19.20;99.90
8595;DHT22;4335;48.860;9.198;2023-08-01T08:48:32;19.40;99.90
8595;DHT22;4335;48.860;9.198;2023-08-01T08:51:03;19.60;99.90
8595;DHT22;4335;48.860;9.198;2023-08-01T08:53:35;19.80;99.90
8595;DHT22;4335;48.860;9.198;2023-08-01T08:56:02;20.00;99.90
8595;DHT22;4335;48.860;9.198;2023-08-01T08:58:33;20.10;99.90
8595;DHT22;4335;48.860;9.198;2023-08-01T09:01:01;20.10;99.90
8595;DHT22;4335;48.860;9.198;2023-08-01T09:03:31;20.10;99.90
8595;DHT22;4335;48.860;9.198;2023-08-01T09:06:02;20.10;99.90
8595;DHT22;4335;48.860;9.198;2023-08-01T09:08:35;20.10;99.90
8595;DHT22;4335;48.860;9.198;2023-08-01T09:11:02;20.00;99.90
8595;DHT22;4335;48.860;9.198;2023-08-01T09:13:30;19.80;99.90
8595;DHT22;4335;48.860;9.198;2023-08-01T09:15:56;19.90;99.90
8595;DHT22;4335;48.860;9.198;2023-08-01T09:18:23;19.80;99.90
8595;DHT22;4335;48.860;9.198;2023-08-01T09:20:51;19.70;99.90
8595;DHT22;4335;48.860;9.198;2023-08-01T09:23:18;19.60;99.90
8595;DHT22;4335;48.860;9.198;2023-08-01T09:25:44;19.60;99.90
8595;DHT22;4335;48.860;9.198;2023-08-01T09:28:22;19.60;99.90
8595;DHT22;4335;48.860;9.198;2023-08-01T09:30:53;19.60;99.90
8595;DHT22;4335;48.860;9.198;2023-08-01T09:33:21;19.70;99.90
8595;DHT22;4335;48.860;9.198;2023-08-01T09:35:50;19.70;99.90
8595;DHT22;4335;48.860;9.198;2023-08-01T09:38:17;19.70;99.90
8595;DHT22;4335;48.860;9.198;2023-08-01T09:40:45;19.90;99.90
8595;DHT22;4335;48.860;9.198;2023-08-01T09:43:12;19.80;99.90
8595;DHT22;4335;48.860;9.198;2023-08-01T09:45:49;19.90;99.90
8595;DHT22;4335;48.860;9.198;2023-08-01T09:48:23;19.90;99.90
8595;DHT22;4335;48.860;9.198;2023-08-01T09:50:51;20.00;99.90
8595;DHT22;4335;48.860;9.198;2023-08-01T09:53:19;20.10;99.90
8595;DHT22;4335;48.860;9.198;2023-08-01T09:55:50;20.30;99.90
8595;DHT22;4335;48.860;9.198;2023-08-01T09:58:22;20.30;99.90
8595;DHT22;4335;48.860;9.198;2023-08-01T10:00:50;20.40;99.90
8595;DHT22;4335;48.860;9.198;2023-08-01T10:03:28;20.40;99.90
8595;DHT22;4335;48.860;9.198;2023-08-01T10:05:56;20.40;99.90
8595;DHT22;4335;48.860;9.198;2023-08-01T10:08:24;20.30;99.90
8595;DHT22;4335;48.860;9.198;2023-08-01T10:10:51;20.30;99.90
8595;DHT22;4335;48.860;9.198;2023-08-01T10:13:23;20.30;99.90
8595;DHT22;4335;48.860;9.198;2023-08-01T10:15:51;20.30;99.90
8595;DHT22;4335;48.860;9.198;2023-08-01T10:18:18;20.20;99.90
8595;DHT22;4335;48.860;9.198;2023-08-01T10:20:45;20.30;99.90
8595;DHT22;4335;48.860;9.198;2023-08-01T10:23:12;20.30;99.90
8595;DHT22;4335;48.860;9.198;2023-08-01T10:25:40;20.30;99.90
8595;DHT22;4335;48.860;9.198;2023-08-01T10:28:06;20.40;99.90
8595;DHT22;4335;48.860;9.198;2023-08-01T10:30:33;20.50;99.90
8595;DHT22;4335;48.860;9.198;2023-08-01T10:33:03;20.60;99.90
8595;DHT22;4335;48.860;9.198;2023-08-01T10:35:34;20.60;99.90
8595;DHT22;4335;48.860;9.198;2023-08-01T10:38:05;20.70;99.90
8595;DHT22;4335;48.860;9.198;2023-08-01T10:40:36;21.00;99.90
8595;DHT22;4335;48.860;9.198;2023-08-01T10:43:02;22.30;99.90
8595;DHT22;4335;48.860;9.198;2023-08-01T10:45:29;23.80;99.90
8595;DHT22;4335;48.860;9.198;2023-08-01T10:48:08;25.50;99.90
8595;DHT22;4335;48.860;9.198;2023-08-01T10:50:35;26.70;99.90
8595;DHT22;4335;48.860;9.198;2023-08-01T10:53:06;27.00;99.90
8595;DHT22;4335;48.860;9.198;2023-08-01T10:55:45;27.60;99.90
8595;DHT22;4335;48.860;9.198;2023-08-01T10:58:12;27.30;99.90
8595;DHT22;4335;48.860;9.198;2023-08-01T11:00:38;26.40;99.90
8595;DHT22;4335;48.860;9.198;2023-08-01T11:03:05;25.90;99.90
8595;DHT22;4335;48.860;9.198;2023-08-01T11:05:32;25.10;99.90
8595;DHT22;4335;48.860;9.198;2023-08-01T11:07:59;24.70;99.90
8595;DHT22;4335;48.860;9.198;2023-08-01T11:10:27;24.40;99.90
8595;DHT22;4335;48.860;9.198;2023-08-01T11:12:58;23.80;99.90
8595;DHT22;4335;48.860;9.198;2023-08-01T11:15:31;23.40;99.90
8595;DHT22;4335;48.860;9.198;2023-08-01T11:17:58;23.20;99.90
8595;DHT22;4335;48.860;9.198;2023-08-01T11:20:25;22.90;99.90
8595;DHT22;4335;48.860;9.198;2023-08-01T11:22:55;22.80;99.90
8595;DHT22;4335;48.860;9.198;2023-08-01T11:25:39;22.70;99.90
8595;DHT22;4335;48.860;9.198;2023-08-01T11:28:11;22.70;99.90
8595;DHT22;4335;48.860;9.198;2023-08-01T11:30:38;22.60;99.90
8595;DHT22;4335;48.860;9.198;2023-08-01T11:33:13;22.70;99.90
8595;DHT22;4335;48.860;9.198;2023-08-01T11:35:40;22.70;99.90
8595;DHT22;4335;48.860;9.198;2023-08-01T11:38:07;22.80;99.90
8595;DHT22;4335;48.860;9.198;2023-08-01T11:40:34;22.70;99.90
8595;DHT22;4335;48.860;9.198;2023-08-01T11:43:04;22.40;99.90
8595;DHT22;4335;48.860;9.198;2023-08-01T11:45:31;22.10;99.90
8595;DHT22;4335;48.860;9.198;2023-08-01T11:47:58;22.20;99.90
8595;DHT22;4335;48.860;9.198;2023-08-01T11:50:34;22.10;99.90
8595;DHT22;4335;48.860;9.198;2023-08-01T11:53:00;22.00;99.90
8595;DHT22;4335;48.860;9.198;2023-08-01T11:55:27;21.90;99.90
8595;DHT22;4335;48.860;9.198;2023-08-01T11:57:55;21.80;99.90
8595;DHT22;4335;48.860;9.198;2023-08-01T12:00:28;21.80;99.90
8595;DHT22;4335;48.860;9.198;2023-08-01T12:03:06;21.80;99.90
8595;DHT22;4335;48.860;9.198;2023-08-01T12:05:36;21.80;99.90
8595;DHT22;4335;48.860;9.198;2023-08-01T12:08:10;21.70;99.90
8595;DHT22;4335;48.860;9.198;2023-08-01T12:10:38;21.60;99.90
8595;DHT22;4335;48.860;9.198;2023-08-01T12:13:20;21.70;99.90
8595;DHT22;4335;48.860;9.198;2023-08-01T12:15:52;21.90;99.90
8595;DHT22;4335;48.860;9.198;2023-08-01T12:18:23;21.90;99.90
8595;DHT22;4335;48.860;9.198;2023-08-01T12:20:49;21.90;99.90
8595;DHT22;4335;48.860;9.198;2023-08-01T12:23:16;21.90;99.90
8595;DHT22;4335;48.860;9.198;2023-08-01T12:25:43;21.90;99.90
8595;DHT22;4335;48.860;9.198;2023-08-01T12:28:10;21.90;99.90
8595;DHT22;4335;48.860;9.198;2023-08-01T12:30:43;22.00;99.90
8595;DHT22;4335;48.860;9.198;2023-08-01T12:33:10;22.10;99.90
8595;DHT22;4335;48.860;9.198;2023-08-01T12:35:47;22.10;99.90
8595;DHT22;4335;48.860;9.198;2023-08-01T12:38:13;22.30;99.90
8595;DHT22;4335;48.860;9.198;2023-08-01T12:40:45;22.30;99.90
8595;DHT22;4335;48.860;9.198;2023-08-01T12:43:12;22.40;99.90
8595;DHT22;4335;48.860;9.198;2023-08-01T12:45:39;22.50;99.90
8595;DHT22;4335;48.860;9.198;2023-08-01T12:48:06;22.50;99.90
8595;DHT22;4335;48.860;9.198;2023-08-01T12:50:32;22.50;99.90
8595;DHT22;4335;48.860;9.198;2023-08-01T12:53:02;22.60;99.90
8595;DHT22;4335;48.860;9.198;2023-08-01T12:55:32;22.60;99.90
8595;DHT22;4335;48.860;9.198;2023-08-01T12:57:58;22.60;99.90
8595;DHT22;4335;48.860;9.198;2023-08-01T13:00:25;22.50;99.90
8595;DHT22;4335;48.860;9.198;2023-08-01T13:02:54;22.40;99.90
8595;DHT22;4335;48.860;9.198;2023-08-01T13:05:20;22.30;99.90
8595;DHT22;4335;48.860;9.198;2023-08-01T13:08:06;22.30;99.90
8595;DHT22;4335;48.860;9.198;2023-08-01T13:10:34;22.20;99.90
8595;DHT22;4335;48.860;9.198;2023-08-01T13:13:03;22.20;99.90
8595;DHT22;4335;48.860;9.198;2023-08-01T13:15:30;22.30;99.90
8595;DHT22;4335;48.860;9.198;2023-08-01T13:18:06;22.30;99.90
8595;DHT22;4335;48.860;9.198;2023-08-01T13:20:33;22.30;99.90
8595;DHT22;4335;48.860;9.198;2023-08-01T13:23:00;22.40;99.90
8595;DHT22;4335;48.860;9.198;2023-08-01T13:25:27;22.30;99.90
8595;DHT22;4335;48.860;9.198;2023-08-01T13:27:54;22.20;99.90
8595;DHT22;4335;48.860;9.198;2023-08-01T13:30:26;22.20;99.90
8595;DHT22;4335;48.860;9.198;2023-08-01T13:32:56;22.20;99.90
8595;DHT22;4335;48.860;9.198;2023-08-01T13:35:23;22.20;99.90
8595;DHT22;4335;48.860;9.198;2023-08-01T13:37:49;22.10;99.90
8595;DHT22;4335;48.860;9.198;2023-08-01T13:40:22;22.10;99.90
8595;DHT22;4335;48.860;9.198;2023-08-01T13:42:52;22.00;99.90
8595;DHT22;4335;48.860;9.198;2023-08-01T13:45:18;22.00;99.90
8595;DHT22;4335;48.860;9.198;2023-08-01T13:47:45;22.10;99.90
8595;DHT22;4335;48.860;9.198;2023-08-01T13:50:15;22.20;99.90
8595;DHT22;4335;48.860;9.198;2023-08-01T13:52:42;22.30;99.90
8595;DHT22;4335;48.860;9.198;2023-08-01T13:55:09;22.20;99.90
8595;DHT22;4335;48.860;9.198;2023-08-01T13:57:39;22.20;99.90
8595;DHT22;4335;48.860;9.198;2023-08-01T14:00:13;22.20;99.90
8595;DHT22;4335;48.860;9.198;2023-08-01T14:02:40;22.20;99.90
8595;DHT22;4335;48.860;9.198;2023-08-01T14:05:07;22.30;99.90
8595;DHT22;4335;48.860;9.198;2023-08-01T14:07:37;22.40;99.90
8595;DHT22;4335;48.860;9.198;2023-08-01T14:10:05;22.30;99.90
8595;DHT22;4335;48.860;9.198;2023-08-01T14:12:32;22.30;99.90
8595;DHT22;4335;48.860;9.198;2023-08-01T14:14:58;22.40;99.90
8595;DHT22;4335;48.860;9.198;2023-08-01T14:17:29;22.60;99.90
8595;DHT22;4335;48.860;9.198;2023-08-01T14:19:55;22.60;99.90
8595;DHT22;4335;48.860;9.198;2023-08-01T14:22:25;22.70;99.90
8595;DHT22;4335;48.860;9.198;2023-08-01T14:24:53;22.70;99.90
8595;DHT22;4335;48.860;9.198;2023-08-01T14:27:20;22.80;99.90
8595;DHT22;4335;48.860;9.198;2023-08-01T14:29:47;22.80;99.90
8595;DHT22;4335;48.860;9.198;2023-08-01T14:32:18;22.70;99.90
8595;DHT22;4335;48.860;9.198;2023-08-01T14:34:46;22.70;99.90
8595;DHT22;4335;48.860;9.198;2023-08-01T14:37:15;22.70;99.90
8595;DHT22;4335;48.860;9.198;2023-08-01T14:39:42;22.90;99.90
8595;DHT22;4335;48.860;9.198;2023-08-01T14:42:24;22.90;99.90
8595;DHT22;4335;48.860;9.198;2023-08-01T14:44:54;22.90;99.90
8595;DHT22;4335;48.860;9.198;2023-08-01T14:47:25;23.00;99.90
8595;DHT22;4335;48.860;9.198;2023-08-01T14:49:53;23.10;99.90
8595;DHT22;4335;48.860;9.198;2023-08-01T14:52:28;23.10;99.90
8595;DHT22;4335;48.860;9.198;2023-08-01T14:54:54;23.10;99.90
8595;DHT22;4335;48.860;9.198;2023-08-01T14:57:24;23.10;99.90
8595;DHT22;4335;48.860;9.198;2023-08-01T14:59:51;23.20;99.90
8595;DHT22;4335;48.860;9.198;2023-08-01T15:02:17;23.20;99.90
8595;DHT22;4335;48.860;9.198;2023-08-01T15:04:44;23.20;99.90
8595;DHT22;4335;48.860;9.198;2023-08-01T15:07:12;23.30;99.90
8595;DHT22;4335;48.860;9.198;2023-08-01T15:09:42;23.30;99.90
8595;DHT22;4335;48.860;9.198;2023-08-01T15:12:09;23.20;99.90
8595;DHT22;4335;48.860;9.198;2023-08-01T15:14:36;23.20;99.90
8595;DHT22;4335;48.860;9.198;2023-08-01T15:17:03;23.20;99.90
8595;DHT22;4335;48.860;9.198;2023-08-01T15:19:33;23.10;99.90
8595;DHT22;4335;48.860;9.198;2023-08-01T15:22:00;23.10;99.90
8595;DHT22;4335;48.860;9.198;2023-08-01T15:24:29;23.10;99.90
8595;DHT22;4335;48.860;9.198;2023-08-01T15:26:55;23.10;99.90
8595;DHT22;4335;48.860;9.198;2023-08-01T15:29:22;23.10;99.90
8595;DHT22;4335;48.860;9.198;2023-08-01T15:31:49;23.00;99.90
8595;DHT22;4335;48.860;9.198;2023-08-01T15:34:18;23.00;99.90
8595;DHT22;4335;48.860;9.198;2023-08-01T15:36:46;22.90;99.90
8595;DHT22;4335;48.860;9.198;2023-08-01T15:39:13;22.90;99.90
8595;DHT22;4335;48.860;9.198;2023-08-01T15:41:43;22.90;99.90
8595;DHT22;4335;48.860;9.198;2023-08-01T15:44:10;22.90;99.90
8595;DHT22;4335;48.860;9.198;2023-08-01T15:46:36;22.90;99.90
8595;DHT22;4335;48.860;9.198;2023-08-01T15:49:06;23.00;99.90
8595;DHT22;4335;48.860;9.198;2023-08-01T15:51:33;22.90;99.90
8595;DHT22;4335;48.860;9.198;2023-08-01T15:54:01;22.90;99.90
8595;DHT22;4335;48.860;9.198;2023-08-01T15:56:28;22.80;99.90
8595;DHT22;4335;48.860;9.198;2023-08-01T15:58:55;22.80;99.90
8595;DHT22;4335;48.860;9.198;2023-08-01T16:01:22;22.80;99.90
8595;DHT22;4335;48.860;9.198;2023-08-01T16:03:55;22.80;99.90
8595;DHT22;4335;48.860;9.198;2023-08-01T16:06:22;22.80;99.90
8595;DHT22;4335;48.860;9.198;2023-08-01T16:08:49;22.80;99.90
8595;DHT22;4335;48.860;9.198;2023-08-01T16:11:15;22.80;99.90
8595;DHT22;4335;48.860;9.198;2023-08-01T16:13:43;22.80;99.90